sensor_id;sensor_type;location;lat;lon;timestamp;pressure;altitude;pressure_sealevel;temperature;humidity
29197;BME280;62796;42.654;23.316;2023-05-19T00:00:34;94814.47;;;14.04;59.74
29197;BME280;62796;42.654;23.316;2023-05-19T00:03:02;94786.09;;;13.89;59.78
29197;BME280;62796;42.654;23.316;2023-05-19T00:05:28;94786.09;;;13.89;59.89
29197;BME280;62796;42.654;23.316;2023-05-19T00:07:58;94801.84;;;14.03;59.96
29197;BME280;62796;42.654;23.316;2023-05-19T00:10:25;94786.09;;;13.89;60.17
29197;BME280;62796;42.654;23.316;2023-05-19T00:12:56;94784.81;;;13.84;59.89
29197;BME280;62796;42.654;23.316;2023-05-19T00:15:22;94807.16;;;14.06;59.95
29197;BME280;62796;42.654;23.316;2023-05-19T00:17:47;94784.34;;;13.91;59.74
29197;BME280;62796;42.654;23.316;2023-05-19T00:20:13;94789.41;;;13.98;59.78
29197;BME280;62796;42.654;23.316;2023-05-19T00:22:38;94772.97;;;13.95;59.65
29197;BME280;62796;42.654;23.316;2023-05-19T00:25:05;94785.91;;;14.09;59.51
29197;BME280;62796;42.654;23.316;2023-05-19T00:27:30;94791.97;;;14.07;59.42
29197;BME280;62796;42.654;23.316;2023-05-19T00:29:56;94763.06;;;13.94;59.29
29197;BME280;62796;42.654;23.316;2023-05-19T00:32:21;94791.72;;;14.11;59.18
29197;BME280;62796;42.654;23.316;2023-05-19T00:34:46;94785.66;;;14.12;58.96
29197;BME280;62796;42.654;23.316;2023-05-19T00:37:13;94771.22;;;14.03;59.11
29197;BME280;62796;42.654;23.316;2023-05-19T00:39:38;94763.31;;;13.96;59.14
29197;BME280;62796;42.654;23.316;2023-05-19T00:42:04;94777.53;;;14.03;59.15
29197;BME280;62796;42.654;23.316;2023-05-19T00:44:30;94777.03;;;14.05;59.01
29197;BME280;62796;42.654;23.316;2023-05-19T00:46:56;94759.78;;;13.95;58.94
29197;BME280;62796;42.654;23.316;2023-05-19T00:49:21;94775.00;;;14.00;59.08
29197;BME280;62796;42.654;23.316;2023-05-19T00:51:47;94772.22;;;14.00;59.06
29197;BME280;62796;42.654;23.316;2023-05-19T00:54:14;94755.25;;;13.98;58.65
29197;BME280;62796;42.654;23.316;2023-05-19T00:56:40;94751.19;;;13.99;58.61
29197;BME280;62796;42.654;23.316;2023-05-19T00:59:06;94777.31;;;14.12;58.49
29197;BME280;62796;42.654;23.316;2023-05-19T01:01:32;94746.63;;;13.96;58.42
29197;BME280;62796;42.654;23.316;2023-05-19T01:03:58;94758.78;;;14.04;58.41
29197;BME280;62796;42.654;23.316;2023-05-19T01:06:24;94774.53;;;14.12;58.43
29197;BME280;62796;42.654;23.316;2023-05-19T01:08:52;94767.88;;;13.93;58.31
29197;BME280;62796;42.654;23.316;2023-05-19T01:11:18;94781.59;;;14.08;58.12
29197;BME280;62796;42.654;23.316;2023-05-19T01:13:43;94761.53;;;13.87;58.19
29197;BME280;62796;42.654;23.316;2023-05-19T01:18:49;94790.41;;;13.90;59.30
29197;BME280;62796;42.654;23.316;2023-05-19T01:27:20;94787.88;;;13.92;59.62
29197;BME280;62796;42.654;23.316;2023-05-19T01:33:06;94790.91;;;13.88;59.65
29197;BME280;62796;42.654;23.316;2023-05-19T01:35:35;94759.22;;;13.74;59.71
29197;BME280;62796;42.654;23.316;2023-05-19T01:38:03;94786.59;;;13.93;59.78
29197;BME280;62796;42.654;23.316;2023-05-19T01:40:29;94779.25;;;13.90;59.65
29197;BME280;62796;42.654;23.316;2023-05-19T01:42:58;94790.16;;;13.88;59.69
29197;BME280;62796;42.654;23.316;2023-05-19T01:45:26;94792.69;;;13.85;59.57
29197;BME280;62796;42.654;23.316;2023-05-19T01:47:55;94787.84;;;13.86;59.37
29197;BME280;62796;42.654;23.316;2023-05-19T01:50:21;94764.00;;;13.74;59.71
29197;BME280;62796;42.654;23.316;2023-05-19T01:52:46;94794.19;;;13.86;59.48
29197;BME280;62796;42.654;23.316;2023-05-19T01:55:12;94772.88;;;13.72;59.54
29197;BME280;62796;42.654;23.316;2023-05-19T02:00:25;94793.16;;;13.78;59.83
29197;BME280;62796;42.654;23.316;2023-05-19T02:03:08;94801.25;;;13.76;59.95
29197;BME280;62796;42.654;23.316;2023-05-19T02:05:51;94792.84;;;13.71;60.24
29197;BME280;62796;42.654;23.316;2023-05-19T02:08:33;94796.38;;;13.66;60.46
29197;BME280;62796;42.654;23.316;2023-05-19T02:11:13;94792.56;;;13.63;60.63
29197;BME280;62796;42.654;23.316;2023-05-19T02:13:42;94796.09;;;13.58;60.98
29197;BME280;62796;42.654;23.316;2023-05-19T02:16:09;94796.56;;;13.51;61.29
29197;BME280;62796;42.654;23.316;2023-05-19T02:18:38;94782.03;;;13.30;61.15
29197;BME280;62796;42.654;23.316;2023-05-19T02:21:09;94810.22;;;13.49;61.12
29197;BME280;62796;42.654;23.316;2023-05-19T02:23:38;94796.78;;;13.48;61.25
29197;BME280;62796;42.654;23.316;2023-05-19T02:26:04;94775.97;;;13.32;61.16
29197;BME280;62796;42.654;23.316;2023-05-19T02:28:29;94799.00;;;13.38;61.63
29197;BME280;62796;42.654;23.316;2023-05-19T02:30:54;94790.84;;;13.29;61.99
29197;BME280;62796;42.654;23.316;2023-05-19T02:33:20;94774.09;;;13.12;61.98
29197;BME280;62796;42.654;23.316;2023-05-19T02:35:49;94771.53;;;13.09;62.25
29197;BME280;62796;42.654;23.316;2023-05-19T02:38:14;94806.03;;;13.28;62.28
29197;BME280;62796;42.654;23.316;2023-05-19T02:40:40;94803.00;;;13.26;62.19
29197;BME280;62796;42.654;23.316;2023-05-19T02:43:06;94783.34;;;13.04;62.23
29197;BME280;62796;42.654;23.316;2023-05-19T02:45:32;94779.03;;;13.03;62.41
29197;BME280;62796;42.654;23.316;2023-05-19T02:47:58;94808.56;;;13.26;62.21
29197;BME280;62796;42.654;23.316;2023-05-19T02:50:23;94789.25;;;13.11;62.31
29197;BME280;62796;42.654;23.316;2023-05-19T02:52:49;94808.25;;;13.18;62.30
29197;BME280;62796;42.654;23.316;2023-05-19T02:55:14;94788.41;;;13.05;62.57
29197;BME280;62796;42.654;23.316;2023-05-19T02:57:41;94791.16;;;13.00;62.59
29197;BME280;62796;42.654;23.316;2023-05-19T03:00:08;94776.75;;;12.96;62.55
29197;BME280;62796;42.654;23.316;2023-05-19T03:02:33;94804.41;;;13.10;62.44
29197;BME280;62796;42.654;23.316;2023-05-19T03:04:59;94784.09;;;12.99;62.72
29197;BME280;62796;42.654;23.316;2023-05-19T03:07:27;94786.63;;;13.02;62.79
29197;BME280;62796;42.654;23.316;2023-05-19T03:09:53;94813.78;;;13.13;63.07
29197;BME280;62796;42.654;23.316;2023-05-19T03:12:18;94817.09;;;13.17;62.87
29197;BME280;62796;42.654;23.316;2023-05-19T03:14:44;94789.91;;;13.01;62.92
29197;BME280;62796;42.654;23.316;2023-05-19T03:17:09;94823.41;;;13.17;62.92
29197;BME280;62796;42.654;23.316;2023-05-19T03:19:35;94825.72;;;13.19;63.01
29197;BME280;62796;42.654;23.316;2023-05-19T03:22:00;94825.72;;;13.19;63.10
29197;BME280;62796;42.654;23.316;2023-05-19T03:24:26;94823.94;;;13.21;62.82
29197;BME280;62796;42.654;23.316;2023-05-19T03:26:51;94824.19;;;13.18;63.16
29197;BME280;62796;42.654;23.316;2023-05-19T03:29:17;94808.97;;;13.08;63.21
29197;BME280;62796;42.654;23.316;2023-05-19T03:31:42;94827.91;;;13.09;63.43
29197;BME280;62796;42.654;23.316;2023-05-19T03:34:08;94825.38;;;13.11;63.31
29197;BME280;62796;42.654;23.316;2023-05-19T03:36:33;94797.44;;;12.95;63.38
29197;BME280;62796;42.654;23.316;2023-05-19T03:39:07;94823.19;;;13.21;63.30
29197;BME280;62796;42.654;23.316;2023-05-19T03:41:33;94795.72;;;13.03;63.18
29197;BME280;62796;42.654;23.316;2023-05-19T03:43:58;94821.19;;;13.27;62.93
29197;BME280;62796;42.654;23.316;2023-05-19T03:46:24;94795.50;;;13.06;62.89
29197;BME280;62796;42.654;23.316;2023-05-19T03:48:49;94834.66;;;13.34;62.67
29197;BME280;62796;42.654;23.316;2023-05-19T03:51:15;94801.66;;;13.16;62.90
29197;BME280;62796;42.654;23.316;2023-05-19T03:53:41;94791.81;;;13.20;62.61
29197;BME280;62796;42.654;23.316;2023-05-19T03:56:07;94796.38;;;13.18;62.59
29197;BME280;62796;42.654;23.316;2023-05-19T03:58:33;94801.69;;;13.21;62.76
29197;BME280;62796;42.654;23.316;2023-05-19T04:00:58;94832.47;;;13.49;62.57
29197;BME280;62796;42.654;23.316;2023-05-19T04:03:23;94830.22;;;13.53;62.32
29197;BME280;62796;42.654;23.316;2023-05-19T04:05:52;94814.25;;;13.48;61.93
29197;BME280;62796;42.654;23.316;2023-05-19T04:08:18;94841.94;;;13.68;61.90
29197;BME280;62796;42.654;23.316;2023-05-19T04:10:43;94805.94;;;13.54;61.85
29197;BME280;62796;42.654;23.316;2023-05-19T04:13:08;94798.09;;;13.52;61.67
29197;BME280;62796;42.654;23.316;2023-05-19T04:15:34;94835.09;;;13.69;61.98
29197;BME280;62796;42.654;23.316;2023-05-19T04:18:00;94842.72;;;13.74;61.85
29197;BME280;62796;42.654;23.316;2023-05-19T04:20:25;94841.25;;;13.84;61.28
29197;BME280;62796;42.654;23.316;2023-05-19T04:22:51;94835.69;;;13.84;61.22
29197;BME280;62796;42.654;23.316;2023-05-19T04:25:16;94820.19;;;13.72;61.36
29197;BME280;62796;42.654;23.316;2023-05-19T04:27:44;94824.00;;;13.80;61.34
29197;BME280;62796;42.654;23.316;2023-05-19T04:30:09;94826.88;;;13.92;61.06
29197;BME280;62796;42.654;23.316;2023-05-19T04:32:36;94843.88;;;14.10;61.02
29197;BME280;62796;42.654;23.316;2023-05-19T04:35:02;94838.28;;;14.05;60.53
29197;BME280;62796;42.654;23.316;2023-05-19T04:37:28;94847.72;;;14.18;60.61
29197;BME280;62796;42.654;23.316;2023-05-19T04:39:54;94852.81;;;14.25;60.04
29197;BME280;62796;42.654;23.316;2023-05-19T04:42:19;94840.16;;;14.24;59.76
29197;BME280;62796;42.654;23.316;2023-05-19T04:44:45;94826.72;;;14.23;59.41
29197;BME280;62796;42.654;23.316;2023-05-19T04:47:13;94837.38;;;14.30;58.97
29197;BME280;62796;42.654;23.316;2023-05-19T04:49:39;94841.75;;;14.42;59.28
29197;BME280;62796;42.654;23.316;2023-05-19T04:52:08;94823.75;;;14.43;59.01
29197;BME280;62796;42.654;23.316;2023-05-19T04:54:38;94857.75;;;14.69;58.85
29197;BME280;62796;42.654;23.316;2023-05-19T04:57:04;94834.66;;;14.52;58.86
29197;BME280;62796;42.654;23.316;2023-05-19T04:59:30;94834.94;;;14.65;58.51
29197;BME280;62796;42.654;23.316;2023-05-19T05:01:56;94813.34;;;14.38;58.76
29197;BME280;62796;42.654;23.316;2023-05-19T05:04:22;94859.53;;;14.72;58.46
29197;BME280;62796;42.654;23.316;2023-05-19T05:06:48;94851.41;;;14.63;58.79
29197;BME280;62796;42.654;23.316;2023-05-19T05:09:14;94853.72;;;14.92;58.54
29197;BME280;62796;42.654;23.316;2023-05-19T05:11:40;94855.50;;;15.07;58.23
29197;BME280;62796;42.654;23.316;2023-05-19T05:14:06;94855.25;;;15.16;58.01
29197;BME280;62796;42.654;23.316;2023-05-19T05:16:32;94828.59;;;15.15;57.88
29197;BME280;62796;42.654;23.316;2023-05-19T05:18:59;94851.44;;;15.41;57.59
29197;BME280;62796;42.654;23.316;2023-05-19T05:21:24;94835.94;;;15.45;57.35
29197;BME280;62796;42.654;23.316;2023-05-19T05:23:51;94850.09;;;15.75;56.76
29197;BME280;62796;42.654;23.316;2023-05-19T05:26:17;94848.81;;;15.82;56.28
29197;BME280;62796;42.654;23.316;2023-05-19T05:28:48;94849.56;;;15.88;56.12
29197;BME280;62796;42.654;23.316;2023-05-19T05:31:13;94831.81;;;15.74;55.08
29197;BME280;62796;42.654;23.316;2023-05-19T05:33:39;94860.19;;;16.00;54.48
29197;BME280;62796;42.654;23.316;2023-05-19T05:36:05;94824.16;;;15.91;54.77
29197;BME280;62796;42.654;23.316;2023-05-19T05:38:31;94865.75;;;16.12;55.11
29197;BME280;62796;42.654;23.316;2023-05-19T05:40:56;94860.19;;;16.06;55.30
29197;BME280;62796;42.654;23.316;2023-05-19T05:43:22;94861.63;;;16.24;54.91
29197;BME280;62796;42.654;23.316;2023-05-19T05:45:47;94830.41;;;16.14;54.33
29197;BME280;62796;42.654;23.316;2023-05-19T05:48:13;94860.50;;;16.43;54.58
29197;BME280;62796;42.654;23.316;2023-05-19T05:50:47;94862.81;;;16.45;54.09
29197;BME280;62796;42.654;23.316;2023-05-19T05:53:17;94860.00;;;16.45;54.34
29197;BME280;62796;42.654;23.316;2023-05-19T05:55:46;94838.41;;;16.40;54.38
29197;BME280;62796;42.654;23.316;2023-05-19T05:58:12;94863.94;;;16.72;53.87
29197;BME280;62796;42.654;23.316;2023-05-19T06:00:40;94856.31;;;16.72;53.63
29197;BME280;62796;42.654;23.316;2023-05-19T06:03:09;94864.69;;;16.78;52.94
29197;BME280;62796;42.654;23.316;2023-05-19T06:05:35;94872.19;;;16.94;53.16
29197;BME280;62796;42.654;23.316;2023-05-19T06:08:01;94858.81;;;16.76;53.55
29197;BME280;62796;42.654;23.316;2023-05-19T06:10:27;94874.94;;;16.99;52.65
29197;BME280;62796;42.654;23.316;2023-05-19T06:12:53;94866.09;;;16.95;51.91
29197;BME280;62796;42.654;23.316;2023-05-19T06:15:19;94865.75;;;17.04;52.75
29197;BME280;62796;42.654;23.316;2023-05-19T06:17:45;94893.88;;;17.17;52.43
29197;BME280;62796;42.654;23.316;2023-05-19T06:20:11;94887.25;;;16.85;52.66
29197;BME280;62796;42.654;23.316;2023-05-19T06:22:37;94856.00;;;16.81;53.00
29197;BME280;62796;42.654;23.316;2023-05-19T06:25:03;94888.56;;;17.20;52.31
29197;BME280;62796;42.654;23.316;2023-05-19T06:27:28;94886.00;;;17.51;51.54
29197;BME280;62796;42.654;23.316;2023-05-19T06:29:53;94857.22;;;17.51;51.83
29197;BME280;62796;42.654;23.316;2023-05-19T06:32:19;94885.50;;;17.77;51.10
29197;BME280;62796;42.654;23.316;2023-05-19T06:34:45;94864.81;;;17.86;50.39
29197;BME280;62796;42.654;23.316;2023-05-19T06:37:10;94859.84;;;17.97;50.16
29197;BME280;62796;42.654;23.316;2023-05-19T06:39:37;94892.06;;;18.34;49.00
29197;BME280;62796;42.654;23.316;2023-05-19T06:42:02;94871.66;;;18.33;48.57
29197;BME280;62796;42.654;23.316;2023-05-19T06:44:28;94890.75;;;18.59;47.80
29197;BME280;62796;42.654;23.316;2023-05-19T06:46:53;94883.47;;;18.69;46.93
29197;BME280;62796;42.654;23.316;2023-05-19T06:49:19;94889.09;;;18.69;47.30
29197;BME280;62796;42.654;23.316;2023-05-19T06:51:44;94872.09;;;18.80;47.38
29197;BME280;62796;42.654;23.316;2023-05-19T06:54:10;94870.44;;;18.71;47.42
29197;BME280;62796;42.654;23.316;2023-05-19T06:56:37;94894.81;;;18.58;46.71
29197;BME280;62796;42.654;23.316;2023-05-19T06:59:02;94873.69;;;18.57;46.91
29197;BME280;62796;42.654;23.316;2023-05-19T07:01:28;94876.03;;;18.71;46.30
29197;BME280;62796;42.654;23.316;2023-05-19T07:03:54;94895.59;;;18.58;45.98
29197;BME280;62796;42.654;23.316;2023-05-19T07:06:19;94898.09;;;18.62;46.42
29197;BME280;62796;42.654;23.316;2023-05-19T07:08:45;94888.63;;;18.65;46.73
29197;BME280;62796;42.654;23.316;2023-05-19T07:11:10;94887.41;;;18.60;46.34
29197;BME280;62796;42.654;23.316;2023-05-19T07:13:36;94907.19;;;18.68;45.44
29197;BME280;62796;42.654;23.316;2023-05-19T07:16:02;94885.38;;;18.37;44.96
29197;BME280;62796;42.654;23.316;2023-05-19T07:18:27;94908.41;;;18.30;45.80
29197;BME280;62796;42.654;23.316;2023-05-19T07:20:56;94912.00;;;18.49;45.62
29197;BME280;62796;42.654;23.316;2023-05-19T07:23:22;94909.78;;;18.42;46.03
29197;BME280;62796;42.654;23.316;2023-05-19T07:25:48;94904.06;;;18.53;45.87
29197;BME280;62796;42.654;23.316;2023-05-19T07:28:14;94912.13;;;18.81;45.67
29197;BME280;62796;42.654;23.316;2023-05-19T07:30:39;94912.44;;;19.14;45.36
29197;BME280;62796;42.654;23.316;2023-05-19T07:33:05;94914.88;;;19.37;43.85
29197;BME280;62796;42.654;23.316;2023-05-19T07:35:31;94894.09;;;19.26;44.48
29197;BME280;62796;42.654;23.316;2023-05-19T07:37:56;94884.75;;;19.37;44.55
29197;BME280;62796;42.654;23.316;2023-05-19T07:40:22;94904.50;;;19.50;43.86
29197;BME280;62796;42.654;23.316;2023-05-19T07:42:48;94891.53;;;19.60;44.15
29197;BME280;62796;42.654;23.316;2023-05-19T07:45:14;94904.06;;;20.04;43.68
29197;BME280;62796;42.654;23.316;2023-05-19T07:47:40;94883.63;;;20.04;43.34
29197;BME280;62796;42.654;23.316;2023-05-19T07:50:06;94904.25;;;19.93;43.48
29197;BME280;62796;42.654;23.316;2023-05-19T07:52:31;94904.50;;;20.08;43.28
29197;BME280;62796;42.654;23.316;2023-05-19T07:54:58;94908.63;;;20.20;42.87
29197;BME280;62796;42.654;23.316;2023-05-19T07:57:23;94878.97;;;19.93;43.09
29197;BME280;62796;42.654;23.316;2023-05-19T07:59:49;94885.28;;;20.38;42.62
29197;BME280;62796;42.654;23.316;2023-05-19T08:02:14;94893.88;;;20.93;41.48
29197;BME280;62796;42.654;23.316;2023-05-19T08:04:40;94900.16;;;21.33;40.84
29197;BME280;62796;42.654;23.316;2023-05-19T08:07:05;94882.28;;;21.30;40.05
29197;BME280;62796;42.654;23.316;2023-05-19T08:09:31;94911.84;;;21.58;39.47
29197;BME280;62796;42.654;23.316;2023-05-19T08:11:56;94902.03;;;21.72;38.72
29197;BME280;62796;42.654;23.316;2023-05-19T08:14:22;94884.00;;;21.75;38.73
29197;BME280;62796;42.654;23.316;2023-05-19T08:16:49;94907.78;;;22.08;38.27
29197;BME280;62796;42.654;23.316;2023-05-19T08:19:14;94880.09;;;21.98;38.03
29197;BME280;62796;42.654;23.316;2023-05-19T08:21:40;94889.03;;;22.10;38.07
29197;BME280;62796;42.654;23.316;2023-05-19T08:24:07;94899.00;;;22.39;37.65
29197;BME280;62796;42.654;23.316;2023-05-19T08:26:33;94903.63;;;22.57;37.25
29197;BME280;62796;42.654;23.316;2023-05-19T08:28:58;94891.22;;;22.60;37.43
29197;BME280;62796;42.654;23.316;2023-05-19T08:31:24;94897.63;;;22.04;37.70
29197;BME280;62796;42.654;23.316;2023-05-19T08:33:49;94870.13;;;21.77;38.20
29197;BME280;62796;42.654;23.316;2023-05-19T08:36:15;94867.56;;;21.24;39.01
29197;BME280;62796;42.654;23.316;2023-05-19T08:38:41;94887.47;;;20.92;40.49
29197;BME280;62796;42.654;23.316;2023-05-19T08:41:06;94893.34;;;21.28;41.10
29197;BME280;62796;42.654;23.316;2023-05-19T08:43:32;94882.56;;;21.61;39.21
29197;BME280;62796;42.654;23.316;2023-05-19T08:45:59;94890.47;;;22.03;38.62
29197;BME280;62796;42.654;23.316;2023-05-19T08:48:27;94880.13;;;22.34;37.45
29197;BME280;62796;42.654;23.316;2023-05-19T08:51:19;94858.41;;;22.50;37.54
29197;BME280;62796;42.654;23.316;2023-05-19T08:53:50;94877.59;;;22.80;37.59
29197;BME280;62796;42.654;23.316;2023-05-19T08:56:22;94861.94;;;22.07;38.44
29197;BME280;62796;42.654;23.316;2023-05-19T08:58:49;94880.31;;;22.29;39.58
29197;BME280;62796;42.654;23.316;2023-05-19T09:01:16;94852.69;;;22.35;38.14
29197;BME280;62796;42.654;23.316;2023-05-19T09:03:43;94875.94;;;22.84;38.37
29197;BME280;62796;42.654;23.316;2023-05-19T09:06:09;94869.63;;;23.14;37.86
29197;BME280;62796;42.654;23.316;2023-05-19T09:08:39;94884.44;;;23.50;36.64
29197;BME280;62796;42.654;23.316;2023-05-19T09:11:04;94864.09;;;23.59;36.67
29197;BME280;62796;42.654;23.316;2023-05-19T09:13:30;94859.19;;;23.75;36.00
29197;BME280;62796;42.654;23.316;2023-05-19T09:15:56;94879.56;;;24.04;35.58
29197;BME280;62796;42.654;23.316;2023-05-19T09:18:24;94866.00;;;24.25;34.44
29197;BME280;62796;42.654;23.316;2023-05-19T09:21:00;94857.63;;;24.57;33.56
29197;BME280;62796;42.654;23.316;2023-05-19T09:23:27;94861.34;;;24.67;32.15
29197;BME280;62796;42.654;23.316;2023-05-19T09:25:54;94856.44;;;24.75;32.09
29197;BME280;62796;42.654;23.316;2023-05-19T09:28:29;94854.09;;;24.97;32.29
29197;BME280;62796;42.654;23.316;2023-05-19T09:33:28;94829.84;;;25.11;32.42
29197;BME280;62796;42.654;23.316;2023-05-19T09:35:55;94849.06;;;25.20;33.18
29197;BME280;62796;42.654;23.316;2023-05-19T09:38:25;94846.84;;;25.11;31.46
29197;BME280;62796;42.654;23.316;2023-05-19T09:40:54;94862.97;;;25.33;31.04
29197;BME280;62796;42.654;23.316;2023-05-19T09:43:21;94850.22;;;25.17;31.41
29197;BME280;62796;42.654;23.316;2023-05-19T09:45:47;94839.22;;;25.21;31.31
29197;BME280;62796;42.654;23.316;2023-05-19T09:48:14;94856.16;;;25.36;31.40
29197;BME280;62796;42.654;23.316;2023-05-19T09:50:42;94859.50;;;25.50;30.82
29197;BME280;62796;42.654;23.316;2023-05-19T09:53:12;94842.69;;;25.12;31.70
29197;BME280;62796;42.654;23.316;2023-05-19T09:55:38;94851.63;;;25.33;31.26
29197;BME280;62796;42.654;23.316;2023-05-19T09:58:05;94850.69;;;25.38;31.31
29197;BME280;62796;42.654;23.316;2023-05-19T10:00:31;94831.97;;;25.35;29.55
29197;BME280;62796;42.654;23.316;2023-05-19T10:02:57;94850.50;;;25.68;29.16
29197;BME280;62796;42.654;23.316;2023-05-19T10:05:25;94838.84;;;25.81;30.38
29197;BME280;62796;42.654;23.316;2023-05-19T10:07:52;94819.91;;;25.84;30.57
29197;BME280;62796;42.654;23.316;2023-05-19T10:10:20;94846.13;;;26.17;29.48
29197;BME280;62796;42.654;23.316;2023-05-19T10:12:46;94843.75;;;26.30;28.81
29197;BME280;62796;42.654;23.316;2023-05-19T10:15:15;94833.63;;;26.20;28.62
29197;BME280;62796;42.654;23.316;2023-05-19T10:17:41;94832.13;;;26.36;28.34
29197;BME280;62796;42.654;23.316;2023-05-19T10:20:15;94840.25;;;26.39;27.94
29197;BME280;62796;42.654;23.316;2023-05-19T10:22:43;94840.16;;;26.47;28.24
29197;BME280;62796;42.654;23.316;2023-05-19T10:25:10;94822.44;;;26.39;28.27
29197;BME280;62796;42.654;23.316;2023-05-19T10:27:42;94829.06;;;26.42;28.30
29197;BME280;62796;42.654;23.316;2023-05-19T10:30:42;94814.50;;;26.20;28.03
29197;BME280;62796;42.654;23.316;2023-05-19T10:33:08;94798.63;;;26.34;27.87
29197;BME280;62796;42.654;23.316;2023-05-19T10:38:41;94802.56;;;26.56;27.54
29197;BME280;62796;42.654;23.316;2023-05-19T10:44:34;94797.44;;;25.78;28.29
29197;BME280;62796;42.654;23.316;2023-05-19T10:47:06;94812.00;;;25.82;28.73
29197;BME280;62796;42.654;23.316;2023-05-19T10:49:35;94785.59;;;25.72;28.86
29197;BME280;62796;42.654;23.316;2023-05-19T10:52:01;94812.47;;;25.71;29.05
29197;BME280;62796;42.654;23.316;2023-05-19T10:54:42;94794.28;;;25.42;28.38
29197;BME280;62796;42.654;23.316;2023-05-19T10:57:14;94780.22;;;25.27;29.07
29197;BME280;62796;42.654;23.316;2023-05-19T10:59:41;94782.59;;;25.13;29.13
29197;BME280;62796;42.654;23.316;2023-05-19T11:02:09;94784.41;;;25.26;29.12
29197;BME280;62796;42.654;23.316;2023-05-19T11:04:53;94780.47;;;25.46;29.11
29197;BME280;62796;42.654;23.316;2023-05-19T11:07:22;94791.88;;;25.88;28.05
29197;BME280;62796;42.654;23.316;2023-05-19T11:09:52;94790.88;;;26.18;27.94
29197;BME280;62796;42.654;23.316;2023-05-19T11:12:21;94792.53;;;26.38;27.82
29197;BME280;62796;42.654;23.316;2023-05-19T11:14:51;94793.03;;;26.61;27.40
29197;BME280;62796;42.654;23.316;2023-05-19T11:17:17;94792.56;;;26.55;26.46
29197;BME280;62796;42.654;23.316;2023-05-19T11:20:07;94783.53;;;26.32;26.28
29197;BME280;62796;42.654;23.316;2023-05-19T11:22:33;94792.78;;;25.73;27.23
29197;BME280;62796;42.654;23.316;2023-05-19T11:25:00;94765.50;;;25.28;28.54
29197;BME280;62796;42.654;23.316;2023-05-19T11:27:28;94785.03;;;25.91;27.08
29197;BME280;62796;42.654;23.316;2023-05-19T11:30:07;94791.22;;;26.22;26.12
29197;BME280;62796;42.654;23.316;2023-05-19T11:32:36;94788.03;;;26.35;26.06
29197;BME280;62796;42.654;23.316;2023-05-19T11:35:07;94771.59;;;26.16;26.29
29197;BME280;62796;42.654;23.316;2023-05-19T11:37:33;94783.53;;;26.32;26.09
29197;BME280;62796;42.654;23.316;2023-05-19T11:40:04;94782.34;;;26.35;26.13
29197;BME280;62796;42.654;23.316;2023-05-19T11:42:34;94775.34;;;25.77;26.65
29197;BME280;62796;42.654;23.316;2023-05-19T11:45:00;94783.34;;;25.14;28.22
29197;BME280;62796;42.654;23.316;2023-05-19T11:47:26;94766.09;;;24.47;29.35
29197;BME280;62796;42.654;23.316;2023-05-19T11:49:53;94775.78;;;24.29;30.77
29197;BME280;62796;42.654;23.316;2023-05-19T11:52:23;94825.81;;;24.04;35.21
29197;BME280;62796;42.654;23.316;2023-05-19T11:54:49;94836.50;;;23.30;39.75
29197;BME280;62796;42.654;23.316;2023-05-19T11:57:15;94847.34;;;22.88;41.18
29197;BME280;62796;42.654;23.316;2023-05-19T11:59:41;94819.22;;;22.39;41.27
29197;BME280;62796;42.654;23.316;2023-05-19T12:04:45;94818.41;;;21.95;35.92
29197;BME280;62796;42.654;23.316;2023-05-19T12:07:11;94837.75;;;21.70;37.11
29197;BME280;62796;42.654;23.316;2023-05-19T12:09:38;94860.97;;;21.42;38.90
29197;BME280;62796;42.654;23.316;2023-05-19T12:12:03;94872.09;;;21.27;40.90
29197;BME280;62796;42.654;23.316;2023-05-19T12:14:29;94884.81;;;20.74;44.60
29197;BME280;62796;42.654;23.316;2023-05-19T12:16:58;94877.03;;;20.14;46.95
29197;BME280;62796;42.654;23.316;2023-05-19T12:19:33;94873.56;;;19.18;48.93
29197;BME280;62796;42.654;23.316;2023-05-19T12:21:59;94857.66;;;18.89;50.38
29197;BME280;62796;42.654;23.316;2023-05-19T12:24:24;94861.16;;;18.58;51.48
29197;BME280;62796;42.654;23.316;2023-05-19T12:26:50;94864.97;;;17.93;52.42
29197;BME280;62796;42.654;23.316;2023-05-19T12:29:15;94873.22;;;17.61;54.47
29197;BME280;62796;42.654;23.316;2023-05-19T12:31:45;94865.16;;;17.47;55.55
29197;BME280;62796;42.654;23.316;2023-05-19T12:34:11;94864.75;;;17.37;54.54
29197;BME280;62796;42.654;23.316;2023-05-19T12:36:37;94854.59;;;17.34;55.61
29197;BME280;62796;42.654;23.316;2023-05-19T12:39:03;94847.03;;;17.24;55.76
29197;BME280;62796;42.654;23.316;2023-05-19T12:41:30;94828.47;;;17.21;55.66
29197;BME280;62796;42.654;23.316;2023-05-19T12:43:56;94849.63;;;17.46;55.15
29197;BME280;62796;42.654;23.316;2023-05-19T12:46:21;94825.00;;;17.39;54.14
29197;BME280;62796;42.654;23.316;2023-05-19T12:48:46;94815.47;;;17.53;54.36
29197;BME280;62796;42.654;23.316;2023-05-19T12:51:16;94798.56;;;17.64;53.48
29197;BME280;62796;42.654;23.316;2023-05-19T12:53:42;94832.63;;;17.92;50.34
29197;BME280;62796;42.654;23.316;2023-05-19T12:56:12;94823.63;;;17.99;49.23
29197;BME280;62796;42.654;23.316;2023-05-19T12:58:39;94779.50;;;18.05;49.14
29197;BME280;62796;42.654;23.316;2023-05-19T13:01:05;94801.69;;;18.03;47.39
29197;BME280;62796;42.654;23.316;2023-05-19T13:03:38;94789.88;;;18.29;48.32
29197;BME280;62796;42.654;23.316;2023-05-19T13:06:04;94789.63;;;18.46;47.70
29197;BME280;62796;42.654;23.316;2023-05-19T13:08:30;94792.03;;;18.60;47.12
29197;BME280;62796;42.654;23.316;2023-05-19T13:10:55;94779.75;;;18.63;47.15
29197;BME280;62796;42.654;23.316;2023-05-19T13:13:20;94777.63;;;18.69;46.47
29197;BME280;62796;42.654;23.316;2023-05-19T13:15:46;94773.47;;;18.89;45.76